sensor_id;sensor_type;location;lat;lon;timestamp;P1;durP1;ratioP1;P2;durP2;ratioP2
6463;SDS011;3265;42.694;23.282;2022-07-05T00:01:07;8.20;;;3.17;;
6463;SDS011;3265;42.694;23.282;2022-07-05T00:03:54;7.07;;;3.40;;
6463;SDS011;3265;42.694;23.282;2022-07-05T00:06:46;5.85;;;3.20;;
6463;SDS011;3265;42.694;23.282;2022-07-05T00:09:51;4.93;;;3.53;;
6463;SDS011;3265;42.694;23.282;2022-07-05T00:12:43;8.70;;;3.40;;
6463;SDS011;3265;42.694;23.282;2022-07-05T00:15:36;6.25;;;3.10;;
6463;SDS011;3265;42.694;23.282;2022-07-05T00:18:40;6.60;;;3.55;;
6463;SDS011;3265;42.694;23.282;2022-07-05T00:21:28;5.15;;;3.50;;
6463;SDS011;3265;42.694;23.282;2022-07-05T00:24:18;6.32;;;4.00;;
6463;SDS011;3265;42.694;23.282;2022-07-05T00:27:06;7.10;;;4.10;;
6463;SDS011;3265;42.694;23.282;2022-07-05T00:29:59;8.38;;;3.80;;
6463;SDS011;3265;42.694;23.282;2022-07-05T00:32:46;6.32;;;3.38;;
6463;SDS011;3265;42.694;23.282;2022-07-05T00:35:59;5.15;;;3.08;;
6463;SDS011;3265;42.694;23.282;2022-07-05T00:38:53;9.65;;;3.33;;
6463;SDS011;3265;42.694;23.282;2022-07-05T00:41:44;4.45;;;3.28;;
6463;SDS011;3265;42.694;23.282;2022-07-05T00:44:39;5.03;;;3.10;;
6463;SDS011;3265;42.694;23.282;2022-07-05T00:47:37;6.65;;;3.58;;
6463;SDS011;3265;42.694;23.282;2022-07-05T00:50:21;4.65;;;3.50;;
6463;SDS011;3265;42.694;23.282;2022-07-05T00:53:14;5.07;;;3.50;;
6463;SDS011;3265;42.694;23.282;2022-07-05T00:56:06;6.93;;;3.38;;
6463;SDS011;3265;42.694;23.282;2022-07-05T00:59:02;6.07;;;3.00;;
6463;SDS011;3265;42.694;23.282;2022-07-05T01:01:55;7.93;;;3.65;;
6463;SDS011;3265;42.694;23.282;2022-07-05T01:04:49;7.85;;;3.50;;
6463;SDS011;3265;42.694;23.282;2022-07-05T01:07:42;11.70;;;3.70;;
6463;SDS011;3265;42.694;23.282;2022-07-05T01:10:37;8.98;;;3.67;;
6463;SDS011;3265;42.694;23.282;2022-07-05T01:13:27;7.40;;;3.17;;
6463;SDS011;3265;42.694;23.282;2022-07-05T01:16:25;5.57;;;3.60;;
6463;SDS011;3265;42.694;23.282;2022-07-05T01:19:12;4.05;;;3.08;;
6463;SDS011;3265;42.694;23.282;2022-07-05T01:21:52;4.55;;;3.15;;
6463;SDS011;3265;42.694;23.282;2022-07-05T01:24:54;11.80;;;3.70;;
6463;SDS011;3265;42.694;23.282;2022-07-05T01:27:41;4.75;;;3.47;;
6463;SDS011;3265;42.694;23.282;2022-07-05T01:30:35;8.35;;;4.00;;
6463;SDS011;3265;42.694;23.282;2022-07-05T01:33:38;5.63;;;3.85;;
6463;SDS011;3265;42.694;23.282;2022-07-05T01:36:38;8.63;;;4.45;;
6463;SDS011;3265;42.694;23.282;2022-07-05T01:39:33;8.57;;;4.00;;
6463;SDS011;3265;42.694;23.282;2022-07-05T01:45:30;4.95;;;4.05;;
6463;SDS011;3265;42.694;23.282;2022-07-05T01:48:18;8.93;;;4.55;;
6463;SDS011;3265;42.694;23.282;2022-07-05T01:51:11;11.05;;;4.80;;
6463;SDS011;3265;42.694;23.282;2022-07-05T01:54:01;11.32;;;4.47;;
6463;SDS011;3265;42.694;23.282;2022-07-05T01:56:49;9.50;;;4.65;;
6463;SDS011;3265;42.694;23.282;2022-07-05T02:00:00;12.75;;;5.00;;
6463;SDS011;3265;42.694;23.282;2022-07-05T02:02:47;9.70;;;4.40;;
6463;SDS011;3265;42.694;23.282;2022-07-05T02:05:38;8.38;;;4.57;;
6463;SDS011;3265;42.694;23.282;2022-07-05T02:08:31;11.18;;;4.80;;
6463;SDS011;3265;42.694;23.282;2022-07-05T02:11:30;9.88;;;4.88;;
6463;SDS011;3265;42.694;23.282;2022-07-05T02:14:30;14.15;;;4.53;;
6463;SDS011;3265;42.694;23.282;2022-07-05T02:17:08;9.73;;;4.70;;
6463;SDS011;3265;42.694;23.282;2022-07-05T02:19:53;9.75;;;5.07;;
6463;SDS011;3265;42.694;23.282;2022-07-05T02:22:41;8.27;;;4.75;;
6463;SDS011;3265;42.694;23.282;2022-07-05T02:25:35;14.02;;;5.30;;
6463;SDS011;3265;42.694;23.282;2022-07-05T02:28:23;12.38;;;4.85;;
6463;SDS011;3265;42.694;23.282;2022-07-05T02:31:08;13.15;;;5.05;;
6463;SDS011;3265;42.694;23.282;2022-07-05T02:34:15;8.60;;;4.88;;
6463;SDS011;3265;42.694;23.282;2022-07-05T02:37:07;9.70;;;4.82;;
6463;SDS011;3265;42.694;23.282;2022-07-05T02:40:01;8.57;;;5.00;;
6463;SDS011;3265;42.694;23.282;2022-07-05T02:42:56;8.57;;;5.25;;
6463;SDS011;3265;42.694;23.282;2022-07-05T02:45:46;11.43;;;5.55;;
6463;SDS011;3265;42.694;23.282;2022-07-05T02:48:33;8.73;;;5.22;;
6463;SDS011;3265;42.694;23.282;2022-07-05T02:51:32;8.50;;;5.95;;
6463;SDS011;3265;42.694;23.282;2022-07-05T02:54:17;11.23;;;5.45;;
6463;SDS011;3265;42.694;23.282;2022-07-05T02:57:20;12.00;;;5.47;;
6463;SDS011;3265;42.694;23.282;2022-07-05T03:00:05;14.20;;;5.95;;
6463;SDS011;3265;42.694;23.282;2022-07-05T03:02:53;9.27;;;5.35;;
6463;SDS011;3265;42.694;23.282;2022-07-05T03:05:36;9.20;;;5.68;;
6463;SDS011;3265;42.694;23.282;2022-07-05T03:08:37;11.25;;;6.40;;
6463;SDS011;3265;42.694;23.282;2022-07-05T03:11:31;12.85;;;6.40;;
6463;SDS011;3265;42.694;23.282;2022-07-05T03:14:20;10.00;;;5.90;;
6463;SDS011;3265;42.694;23.282;2022-07-05T03:17:12;12.63;;;5.63;;
6463;SDS011;3265;42.694;23.282;2022-07-05T03:20:06;16.63;;;5.38;;
6463;SDS011;3265;42.694;23.282;2022-07-05T03:22:53;8.80;;;5.40;;
6463;SDS011;3265;42.694;23.282;2022-07-05T03:25:37;11.05;;;5.20;;
6463;SDS011;3265;42.694;23.282;2022-07-05T03:28:32;9.45;;;5.10;;
6463;SDS011;3265;42.694;23.282;2022-07-05T03:31:27;9.25;;;5.47;;
6463;SDS011;3265;42.694;23.282;2022-07-05T03:34:17;8.75;;;5.55;;
6463;SDS011;3265;42.694;23.282;2022-07-05T03:37:06;10.18;;;5.60;;
6463;SDS011;3265;42.694;23.282;2022-07-05T03:39:52;10.93;;;5.57;;
6463;SDS011;3265;42.694;23.282;2022-07-05T03:42:47;11.82;;;5.03;;
6463;SDS011;3265;42.694;23.282;2022-07-05T03:45:32;11.88;;;5.55;;
6463;SDS011;3265;42.694;23.282;2022-07-05T03:48:29;9.98;;;5.28;;
6463;SDS011;3265;42.694;23.282;2022-07-05T03:51:21;8.32;;;5.30;;
6463;SDS011;3265;42.694;23.282;2022-07-05T03:54:21;10.00;;;4.95;;
6463;SDS011;3265;42.694;23.282;2022-07-05T03:57:06;13.60;;;5.45;;
6463;SDS011;3265;42.694;23.282;2022-07-05T03:59:58;11.75;;;5.53;;
6463;SDS011;3265;42.694;23.282;2022-07-05T04:02:50;13.88;;;5.30;;
6463;SDS011;3265;42.694;23.282;2022-07-05T04:05:39;14.93;;;6.05;;
6463;SDS011;3265;42.694;23.282;2022-07-05T04:08:29;9.57;;;5.40;;
6463;SDS011;3265;42.694;23.282;2022-07-05T04:11:13;13.63;;;5.95;;
6463;SDS011;3265;42.694;23.282;2022-07-05T04:14:01;7.70;;;5.45;;
6463;SDS011;3265;42.694;23.282;2022-07-05T04:17:11;11.18;;;6.50;;
6463;SDS011;3265;42.694;23.282;2022-07-05T04:19:58;8.70;;;5.68;;
6463;SDS011;3265;42.694;23.282;2022-07-05T04:22:44;9.05;;;5.72;;
6463;SDS011;3265;42.694;23.282;2022-07-05T04:25:30;9.77;;;5.70;;
6463;SDS011;3265;42.694;23.282;2022-07-05T04:28:16;9.38;;;5.85;;
6463;SDS011;3265;42.694;23.282;2022-07-05T04:31:10;10.23;;;5.32;;
6463;SDS011;3265;42.694;23.282;2022-07-05T04:34:14;8.75;;;6.00;;
6463;SDS011;3265;42.694;23.282;2022-07-05T04:37:06;11.43;;;5.75;;
6463;SDS011;3265;42.694;23.282;2022-07-05T04:40:11;8.07;;;6.07;;
6463;SDS011;3265;42.694;23.282;2022-07-05T04:42:55;12.85;;;5.97;;
6463;SDS011;3265;42.694;23.282;2022-07-05T04:45:43;11.38;;;5.97;;
6463;SDS011;3265;42.694;23.282;2022-07-05T04:48:29;9.80;;;6.15;;
6463;SDS011;3265;42.694;23.282;2022-07-05T04:51:26;14.18;;;5.65;;
6463;SDS011;3265;42.694;23.282;2022-07-05T04:54:19;9.95;;;5.90;;
6463;SDS011;3265;42.694;23.282;2022-07-05T04:57:11;8.38;;;5.72;;
6463;SDS011;3265;42.694;23.282;2022-07-05T05:00:00;9.63;;;5.43;;
6463;SDS011;3265;42.694;23.282;2022-07-05T05:02:53;9.57;;;5.75;;
6463;SDS011;3265;42.694;23.282;2022-07-05T05:05:51;9.80;;;5.95;;
6463;SDS011;3265;42.694;23.282;2022-07-05T05:11:52;8.48;;;5.43;;
6463;SDS011;3265;42.694;23.282;2022-07-05T05:14:46;10.05;;;5.53;;
6463;SDS011;3265;42.694;23.282;2022-07-05T05:17:27;9.73;;;6.28;;
6463;SDS011;3265;42.694;23.282;2022-07-05T05:20:29;18.33;;;7.32;;
6463;SDS011;3265;42.694;23.282;2022-07-05T05:23:18;9.20;;;6.07;;
6463;SDS011;3265;42.694;23.282;2022-07-05T05:26:18;8.98;;;4.88;;
6463;SDS011;3265;42.694;23.282;2022-07-05T05:29:04;13.35;;;5.30;;
6463;SDS011;3265;42.694;23.282;2022-07-05T05:32:02;11.98;;;5.50;;
6463;SDS011;3265;42.694;23.282;2022-07-05T05:34:48;13.27;;;5.50;;
6463;SDS011;3265;42.694;23.282;2022-07-05T05:37:51;9.50;;;5.32;;
6463;SDS011;3265;42.694;23.282;2022-07-05T05:40:35;11.65;;;5.10;;
6463;SDS011;3265;42.694;23.282;2022-07-05T05:43:32;7.07;;;5.35;;
6463;SDS011;3265;42.694;23.282;2022-07-05T05:46:17;17.35;;;6.47;;
6463;SDS011;3265;42.694;23.282;2022-07-05T05:49:09;12.18;;;5.80;;
6463;SDS011;3265;42.694;23.282;2022-07-05T05:51:53;10.75;;;5.53;;
6463;SDS011;3265;42.694;23.282;2022-07-05T05:54:45;10.40;;;5.60;;
6463;SDS011;3265;42.694;23.282;2022-07-05T05:57:41;10.18;;;5.20;;
6463;SDS011;3265;42.694;23.282;2022-07-05T06:00:39;15.95;;;5.32;;
6463;SDS011;3265;42.694;23.282;2022-07-05T06:03:33;12.18;;;5.50;;
6463;SDS011;3265;42.694;23.282;2022-07-05T06:06:19;14.70;;;5.72;;
6463;SDS011;3265;42.694;23.282;2022-07-05T06:09:05;13.63;;;5.70;;
6463;SDS011;3265;42.694;23.282;2022-07-05T06:11:59;12.50;;;5.45;;
6463;SDS011;3265;42.694;23.282;2022-07-05T06:14:39;8.18;;;4.88;;
6463;SDS011;3265;42.694;23.282;2022-07-05T06:17:33;10.40;;;5.22;;
6463;SDS011;3265;42.694;23.282;2022-07-05T06:20:21;8.88;;;5.05;;
6463;SDS011;3265;42.694;23.282;2022-07-05T06:23:27;16.60;;;5.40;;
6463;SDS011;3265;42.694;23.282;2022-07-05T06:26:14;13.02;;;5.32;;
6463;SDS011;3265;42.694;23.282;2022-07-05T06:29:05;9.55;;;5.10;;
6463;SDS011;3265;42.694;23.282;2022-07-05T06:31:55;10.82;;;5.53;;
6463;SDS011;3265;42.694;23.282;2022-07-05T06:37:45;10.77;;;5.20;;
6463;SDS011;3265;42.694;23.282;2022-07-05T06:40:33;13.18;;;5.28;;
6463;SDS011;3265;42.694;23.282;2022-07-05T06:43:19;12.98;;;5.50;;
6463;SDS011;3265;42.694;23.282;2022-07-05T06:46:18;10.30;;;5.20;;
6463;SDS011;3265;42.694;23.282;2022-07-05T06:49:13;16.00;;;5.18;;
6463;SDS011;3265;42.694;23.282;2022-07-05T06:52:10;10.25;;;5.75;;
6463;SDS011;3265;42.694;23.282;2022-07-05T06:54:51;13.25;;;5.40;;
6463;SDS011;3265;42.694;23.282;2022-07-05T06:57:43;8.90;;;4.90;;
6463;SDS011;3265;42.694;23.282;2022-07-05T07:00:36;9.63;;;4.90;;
6463;SDS011;3265;42.694;23.282;2022-07-05T07:03:25;11.88;;;5.43;;
6463;SDS011;3265;42.694;23.282;2022-07-05T07:06:19;14.48;;;6.55;;
6463;SDS011;3265;42.694;23.282;2022-07-05T07:09:10;10.98;;;5.40;;
6463;SDS011;3265;42.694;23.282;2022-07-05T07:11:56;14.73;;;5.28;;
6463;SDS011;3265;42.694;23.282;2022-07-05T07:14:38;10.48;;;5.05;;
6463;SDS011;3265;42.694;23.282;2022-07-05T07:17:16;13.30;;;5.13;;
6463;SDS011;3265;42.694;23.282;2022-07-05T07:20:04;13.45;;;4.88;;
6463;SDS011;3265;42.694;23.282;2022-07-05T07:22:50;12.48;;;4.82;;
6463;SDS011;3265;42.694;23.282;2022-07-05T07:25:51;9.65;;;4.80;;
6463;SDS011;3265;42.694;23.282;2022-07-05T07:28:42;10.52;;;4.55;;
6463;SDS011;3265;42.694;23.282;2022-07-05T07:31:42;21.30;;;6.25;;
6463;SDS011;3265;42.694;23.282;2022-07-05T07:34:33;13.85;;;5.10;;
6463;SDS011;3265;42.694;23.282;2022-07-05T07:37:24;9.30;;;4.72;;
6463;SDS011;3265;42.694;23.282;2022-07-05T07:40:23;13.55;;;5.15;;
6463;SDS011;3265;42.694;23.282;2022-07-05T07:43:17;10.77;;;5.22;;
6463;SDS011;3265;42.694;23.282;2022-07-05T07:46:04;10.27;;;5.10;;
6463;SDS011;3265;42.694;23.282;2022-07-05T07:48:59;7.25;;;5.10;;
6463;SDS011;3265;42.694;23.282;2022-07-05T07:52:02;11.60;;;5.03;;
6463;SDS011;3265;42.694;23.282;2022-07-05T07:54:54;8.98;;;4.88;;
6463;SDS011;3265;42.694;23.282;2022-07-05T07:57:44;10.52;;;5.28;;
6463;SDS011;3265;42.694;23.282;2022-07-05T08:00:42;10.30;;;4.80;;
6463;SDS011;3265;42.694;23.282;2022-07-05T08:03:42;16.35;;;5.45;;
6463;SDS011;3265;42.694;23.282;2022-07-05T08:06:34;9.32;;;5.20;;
6463;SDS011;3265;42.694;23.282;2022-07-05T08:09:33;8.45;;;5.55;;
6463;SDS011;3265;42.694;23.282;2022-07-05T08:12:23;7.82;;;5.68;;
6463;SDS011;3265;42.694;23.282;2022-07-05T08:15:14;11.15;;;5.13;;
6463;SDS011;3265;42.694;23.282;2022-07-05T08:18:08;7.82;;;5.40;;
6463;SDS011;3265;42.694;23.282;2022-07-05T08:21:04;8.52;;;5.35;;
6463;SDS011;3265;42.694;23.282;2022-07-05T08:24:02;10.35;;;5.60;;
6463;SDS011;3265;42.694;23.282;2022-07-05T08:26:47;13.50;;;5.18;;
6463;SDS011;3265;42.694;23.282;2022-07-05T08:29:32;14.73;;;5.72;;
6463;SDS011;3265;42.694;23.282;2022-07-05T08:32:24;11.82;;;5.03;;
6463;SDS011;3265;42.694;23.282;2022-07-05T08:35:29;9.55;;;5.20;;
6463;SDS011;3265;42.694;23.282;2022-07-05T08:38:16;6.25;;;5.10;;
6463;SDS011;3265;42.694;23.282;2022-07-05T08:41:12;8.65;;;5.18;;
6463;SDS011;3265;42.694;23.282;2022-07-05T08:44:02;9.68;;;5.63;;
6463;SDS011;3265;42.694;23.282;2022-07-05T08:47:04;12.63;;;5.90;;
6463;SDS011;3265;42.694;23.282;2022-07-05T08:49:59;9.75;;;6.10;;
6463;SDS011;3265;42.694;23.282;2022-07-05T08:52:54;9.75;;;5.00;;
6463;SDS011;3265;42.694;23.282;2022-07-05T08:55:50;7.47;;;4.97;;
6463;SDS011;3265;42.694;23.282;2022-07-05T08:58:46;10.93;;;5.95;;
6463;SDS011;3265;42.694;23.282;2022-07-05T09:01:30;12.07;;;5.40;;
6463;SDS011;3265;42.694;23.282;2022-07-05T09:04:18;11.13;;;5.80;;
6463;SDS011;3265;42.694;23.282;2022-07-05T09:07:16;12.77;;;6.00;;
6463;SDS011;3265;42.694;23.282;2022-07-05T09:13:12;16.10;;;5.97;;
6463;SDS011;3265;42.694;23.282;2022-07-05T09:16:02;8.90;;;6.25;;
6463;SDS011;3265;42.694;23.282;2022-07-05T09:19:03;11.48;;;5.97;;
6463;SDS011;3265;42.694;23.282;2022-07-05T09:22:03;8.77;;;5.82;;
6463;SDS011;3265;42.694;23.282;2022-07-05T09:24:45;13.40;;;6.05;;
6463;SDS011;3265;42.694;23.282;2022-07-05T09:27:40;7.63;;;5.70;;
6463;SDS011;3265;42.694;23.282;2022-07-05T09:30:38;17.10;;;6.45;;
6463;SDS011;3265;42.694;23.282;2022-07-05T09:33:33;16.60;;;6.10;;
6463;SDS011;3265;42.694;23.282;2022-07-05T09:36:56;13.60;;;6.00;;
6463;SDS011;3265;42.694;23.282;2022-07-05T09:39:50;11.90;;;6.13;;
6463;SDS011;3265;42.694;23.282;2022-07-05T09:42:45;12.75;;;5.78;;
6463;SDS011;3265;42.694;23.282;2022-07-05T09:45:58;12.63;;;6.03;;
6463;SDS011;3265;42.694;23.282;2022-07-05T09:48:57;13.27;;;5.45;;
6463;SDS011;3265;42.694;23.282;2022-07-05T09:51:54;8.75;;;5.97;;
6463;SDS011;3265;42.694;23.282;2022-07-05T09:54:46;9.25;;;6.05;;
6463;SDS011;3265;42.694;23.282;2022-07-05T09:57:57;9.82;;;6.20;;
6463;SDS011;3265;42.694;23.282;2022-07-05T10:00:41;10.60;;;6.07;;
6463;SDS011;3265;42.694;23.282;2022-07-05T10:03:31;10.93;;;5.68;;
6463;SDS011;3265;42.694;23.282;2022-07-05T10:06:37;12.90;;;6.25;;
6463;SDS011;3265;42.694;23.282;2022-07-05T10:09:26;11.55;;;6.07;;
6463;SDS011;3265;42.694;23.282;2022-07-05T10:12:15;9.55;;;6.10;;
6463;SDS011;3265;42.694;23.282;2022-07-05T10:15:16;11.63;;;6.35;;
6463;SDS011;3265;42.694;23.282;2022-07-05T10:18:13;8.75;;;5.88;;
6463;SDS011;3265;42.694;23.282;2022-07-05T10:21:04;8.85;;;6.32;;
6463;SDS011;3265;42.694;23.282;2022-07-05T10:24:06;8.30;;;5.78;;
6463;SDS011;3265;42.694;23.282;2022-07-05T10:26:56;11.00;;;5.97;;
6463;SDS011;3265;42.694;23.282;2022-07-05T10:30:02;11.18;;;6.13;;
6463;SDS011;3265;42.694;23.282;2022-07-05T10:32:58;13.00;;;6.20;;
6463;SDS011;3265;42.694;23.282;2022-07-05T10:36:00;6.95;;;6.20;;
6463;SDS011;3265;42.694;23.282;2022-07-05T10:38:49;11.27;;;6.85;;
6463;SDS011;3265;42.694;23.282;2022-07-05T10:41:54;7.53;;;6.38;;
6463;SDS011;3265;42.694;23.282;2022-07-05T10:44:48;13.00;;;6.40;;
6463;SDS011;3265;42.694;23.282;2022-07-05T10:50:57;8.18;;;5.82;;
6463;SDS011;3265;42.694;23.282;2022-07-05T10:54:13;20.42;;;6.45;;
6463;SDS011;3265;42.694;23.282;2022-07-05T11:00:21;9.43;;;6.00;;
6463;SDS011;3265;42.694;23.282;2022-07-05T11:03:14;9.18;;;5.78;;
6463;SDS011;3265;42.694;23.282;2022-07-05T11:06:30;12.32;;;5.80;;
6463;SDS011;3265;42.694;23.282;2022-07-05T11:09:21;13.38;;;5.40;;
6463;SDS011;3265;42.694;23.282;2022-07-05T11:12:12;7.80;;;5.53;;
6463;SDS011;3265;42.694;23.282;2022-07-05T11:14:52;10.68;;;5.95;;
6463;SDS011;3265;42.694;23.282;2022-07-05T11:17:26;11.18;;;5.20;;
6463;SDS011;3265;42.694;23.282;2022-07-05T11:20:19;10.77;;;5.32;;
6463;SDS011;3265;42.694;23.282;2022-07-05T11:23:22;10.57;;;5.53;;
6463;SDS011;3265;42.694;23.282;2022-07-05T11:26:16;10.18;;;5.90;;
6463;SDS011;3265;42.694;23.282;2022-07-05T11:29:06;9.70;;;5.82;;
6463;SDS011;3265;42.694;23.282;2022-07-05T11:32:37;13.57;;;6.43;;
6463;SDS011;3265;42.694;23.282;2022-07-05T11:35:39;9.43;;;5.97;;
6463;SDS011;3265;42.694;23.282;2022-07-05T11:38:41;7.18;;;5.70;;
6463;SDS011;3265;42.694;23.282;2022-07-05T11:42:02;8.20;;;5.47;;
6463;SDS011;3265;42.694;23.282;2022-07-05T11:45:07;12.10;;;5.70;;
6463;SDS011;3265;42.694;23.282;2022-07-05T11:47:55;13.38;;;6.10;;
6463;SDS011;3265;42.694;23.282;2022-07-05T11:50:47;14.20;;;5.70;;
6463;SDS011;3265;42.694;23.282;2022-07-05T11:53:47;11.55;;;5.68;;
6463;SDS011;3265;42.694;23.282;2022-07-05T11:56:41;13.10;;;5.68;;
6463;SDS011;3265;42.694;23.282;2022-07-05T11:59:31;11.70;;;6.10;;
6463;SDS011;3265;42.694;23.282;2022-07-05T12:02:22;9.88;;;5.75;;
6463;SDS011;3265;42.694;23.282;2022-07-05T12:05:23;9.07;;;5.90;;
6463;SDS011;3265;42.694;23.282;2022-07-05T12:08:12;8.88;;;5.90;;
6463;SDS011;3265;42.694;23.282;2022-07-05T12:11:12;10.82;;;5.50;;
6463;SDS011;3265;42.694;23.282;2022-07-05T12:14:02;11.38;;;6.30;;
6463;SDS011;3265;42.694;23.282;2022-07-05T12:20:03;10.40;;;5.97;;
6463;SDS011;3265;42.694;23.282;2022-07-05T12:22:58;11.70;;;5.40;;
6463;SDS011;3265;42.694;23.282;2022-07-05T12:25:44;10.82;;;5.60;;
6463;SDS011;3265;42.694;23.282;2022-07-05T12:28:32;6.75;;;5.50;;
6463;SDS011;3265;42.694;23.282;2022-07-05T12:31:19;9.18;;;6.03;;
6463;SDS011;3265;42.694;23.282;2022-07-05T12:34:20;6.70;;;5.95;;
6463;SDS011;3265;42.694;23.282;2022-07-05T12:37:16;7.07;;;5.43;;
6463;SDS011;3265;42.694;23.282;2022-07-05T12:40:11;6.78;;;5.15;;
6463;SDS011;3265;42.694;23.282;2022-07-05T12:43:08;8.13;;;5.97;;
6463;SDS011;3265;42.694;23.282;2022-07-05T12:49:25;8.85;;;5.68;;
6463;SDS011;3265;42.694;23.282;2022-07-05T12:52:11;13.50;;;6.05;;
6463;SDS011;3265;42.694;23.282;2022-07-05T12:55:12;7.63;;;5.90;;
6463;SDS011;3265;42.694;23.282;2022-07-05T12:58:11;9.93;;;6.35;;
6463;SDS011;3265;42.694;23.282;2022-07-05T13:01:00;9.73;;;5.68;;
6463;SDS011;3265;42.694;23.282;2022-07-05T13:04:04;10.70;;;5.70;;
6463;SDS011;3265;42.694;23.282;2022-07-05T13:06:59;11.93;;;5.78;;
6463;SDS011;3265;42.694;23.282;2022-07-05T13:09:48;8.30;;;5.90;;
6463;SDS011;3265;42.694;23.282;2022-07-05T13:12:46;9.27;;;5.60;;
6463;SDS011;3265;42.694;23.282;2022-07-05T13:15:35;12.27;;;6.20;;
6463;SDS011;3265;42.694;23.282;2022-07-05T13:18:36;7.88;;;6.10;;
6463;SDS011;3265;42.694;23.282;2022-07-05T13:21:34;10.13;;;5.57;;
6463;SDS011;3265;42.694;23.282;2022-07-05T13:24:28;10.73;;;5.70;;
6463;SDS011;3265;42.694;23.282;2022-07-05T13:27:18;6.93;;;5.80;;
6463;SDS011;3265;42.694;23.282;2022-07-05T13:30:07;6.80;;;5.57;;
6463;SDS011;3265;42.694;23.282;2022-07-05T13:33:07;12.10;;;5.70;;
6463;SDS011;3265;42.694;23.282;2022-07-05T13:35:57;10.20;;;5.70;;
6463;SDS011;3265;42.694;23.282;2022-07-05T13:38:55;9.15;;;5.97;;
6463;SDS011;3265;42.694;23.282;2022-07-05T13:41:50;10.85;;;6.68;;
6463;SDS011;3265;42.694;23.282;2022-07-05T13:44:42;6.95;;;6.30;;
6463;SDS011;3265;42.694;23.282;2022-07-05T13:47:25;7.22;;;5.80;;
6463;SDS011;3265;42.694;23.282;2022-07-05T13:50:10;8.70;;;6.32;;
6463;SDS011;3265;42.694;23.282;2022-07-05T13:53:17;14.20;;;6.00;;
6463;SDS011;3265;42.694;23.282;2022-07-05T13:56:07;10.63;;;5.88;;
6463;SDS011;3265;42.694;23.282;2022-07-05T13:59:07;8.85;;;6.38;;
6463;SDS011;3265;42.694;23.282;2022-07-05T14:01:50;10.77;;;6.10;;
6463;SDS011;3265;42.694;23.282;2022-07-05T14:04:32;9.43;;;6.10;;
6463;SDS011;3265;42.694;23.282;2022-07-05T14:07:11;11.98;;;6.13;;
6463;SDS011;3265;42.694;23.282;2022-07-05T14:09:55;13.27;;;6.68;;
6463;SDS011;3265;42.694;23.282;2022-07-05T14:12:45;11.35;;;5.85;;
6463;SDS011;3265;42.694;23.282;2022-07-05T14:15:50;10.90;;;6.10;;
6463;SDS011;3265;42.694;23.282;2022-07-05T14:18:38;8.55;;;6.50;;
6463;SDS011;3265;42.694;23.282;2022-07-05T14:21:36;9.43;;;5.97;;
6463;SDS011;3265;42.694;23.282;2022-07-05T14:24:28;11.13;;;6.28;;
6463;SDS011;3265;42.694;23.282;2022-07-05T14:27:18;8.65;;;6.10;;
6463;SDS011;3265;42.694;23.282;2022-07-05T14:30:10;9.20;;;6.10;;
6463;SDS011;3265;42.694;23.282;2022-07-05T14:33:03;12.57;;;6.07;;
6463;SDS011;3265;42.694;23.282;2022-07-05T14:35:49;9.48;;;6.72;;
6463;SDS011;3265;42.694;23.282;2022-07-05T14:38:33;15.68;;;6.32;;
6463;SDS011;3265;42.694;23.282;2022-07-05T14:41:18;8.27;;;6.00;;
6463;SDS011;3265;42.694;23.282;2022-07-05T14:44:15;11.70;;;6.60;;
6463;SDS011;3265;42.694;23.282;2022-07-05T14:47:05;17.02;;;6.95;;
6463;SDS011;3265;42.694;23.282;2022-07-05T14:50:01;8.77;;;6.25;;
6463;SDS011;3265;42.694;23.282;2022-07-05T14:52:54;10.18;;;6.47;;
6463;SDS011;3265;42.694;23.282;2022-07-05T14:55:54;12.15;;;6.57;;
6463;SDS011;3265;42.694;23.282;2022-07-05T14:59:00;12.43;;;6.38;;
6463;SDS011;3265;42.694;23.282;2022-07-05T15:01:48;11.35;;;6.70;;
6463;SDS011;3265;42.694;23.282;2022-07-05T15:04:33;12.45;;;6.18;;
6463;SDS011;3265;42.694;23.282;2022-07-05T15:07:07;14.52;;;6.70;;
6463;SDS011;3265;42.694;23.282;2022-07-05T15:10:05;8.32;;;6.00;;
6463;SDS011;3265;42.694;23.282;2022-07-05T15:12:56;10.20;;;5.60;;
6463;SDS011;3265;42.694;23.282;2022-07-05T15:15:47;13.55;;;6.25;;
6463;SDS011;3265;42.694;23.282;2022-07-05T15:18:31;6.50;;;5.70;;
6463;SDS011;3265;42.694;23.282;2022-07-05T15:21:15;10.00;;;5.88;;
6463;SDS011;3265;42.694;23.282;2022-07-05T15:24:14;14.20;;;5.68;;
6463;SDS011;3265;42.694;23.282;2022-07-05T15:27:12;10.85;;;5.45;;
6463;SDS011;3265;42.694;23.282;2022-07-05T15:29:58;6.63;;;5.47;;
6463;SDS011;3265;42.694;23.282;2022-07-05T15:32:44;8.30;;;5.80;;
6463;SDS011;3265;42.694;23.282;2022-07-05T15:35:33;10.27;;;5.82;;
6463;SDS011;3265;42.694;23.282;2022-07-05T15:38:26;10.50;;;5.85;;
6463;SDS011;3265;42.694;23.282;2022-07-05T15:41:26;6.25;;;5.63;;
6463;SDS011;3265;42.694;23.282;2022-07-05T15:44:14;8.10;;;6.10;;
6463;SDS011;3265;42.694;23.282;2022-07-05T15:47:14;10.43;;;6.13;;
6463;SDS011;3265;42.694;23.282;2022-07-05T15:50:26;15.27;;;6.40;;
6463;SDS011;3265;42.694;23.282;2022-07-05T15:53:07;7.03;;;5.03;;
6463;SDS011;3265;42.694;23.282;2022-07-05T15:55:53;6.60;;;5.35;;
6463;SDS011;3265;42.694;23.282;2022-07-05T15:58:57;10.13;;;5.75;;
6463;SDS011;3265;42.694;23.282;2022-07-05T16:01:46;10.43;;;6.15;;
6463;SDS011;3265;42.694;23.282;2022-07-05T16:04:32;11.10;;;5.97;;
6463;SDS011;3265;42.694;23.282;2022-07-05T16:07:22;9.20;;;6.13;;
6463;SDS011;3265;42.694;23.282;2022-07-05T16:10:14;9.55;;;5.45;;
6463;SDS011;3265;42.694;23.282;2022-07-05T16:13:03;13.00;;;5.68;;
6463;SDS011;3265;42.694;23.282;2022-07-05T16:15:57;9.77;;;5.70;;
6463;SDS011;3265;42.694;23.282;2022-07-05T16:19:00;11.75;;;5.75;;
6463;SDS011;3265;42.694;23.282;2022-07-05T16:21:50;14.38;;;5.20;;
6463;SDS011;3265;42.694;23.282;2022-07-05T16:24:38;10.82;;;5.57;;
6463;SDS011;3265;42.694;23.282;2022-07-05T16:27:32;8.55;;;5.50;;
6463;SDS011;3265;42.694;23.282;2022-07-05T16:30:16;7.13;;;5.47;;
6463;SDS011;3265;42.694;23.282;2022-07-05T16:33:14;10.75;;;6.13;;
6463;SDS011;3265;42.694;23.282;2022-07-05T16:36:16;9.52;;;5.97;;
6463;SDS011;3265;42.694;23.282;2022-07-05T16:39:05;8.77;;;5.85;;
6463;SDS011;3265;42.694;23.282;2022-07-05T16:42:04;9.50;;;6.22;;
6463;SDS011;3265;42.694;23.282;2022-07-05T16:44:53;6.70;;;5.60;;
6463;SDS011;3265;42.694;23.282;2022-07-05T16:47:45;10.10;;;5.68;;
6463;SDS011;3265;42.694;23.282;2022-07-05T16:50:48;12.40;;;9.23;;
6463;SDS011;3265;42.694;23.282;2022-07-05T16:53:39;12.98;;;5.57;;
6463;SDS011;3265;42.694;23.282;2022-07-05T16:59:23;7.03;;;5.20;;
6463;SDS011;3265;42.694;23.282;2022-07-05T17:02:09;12.98;;;5.72;;
6463;SDS011;3265;42.694;23.282;2022-07-05T17:05:03;8.05;;;5.97;;
6463;SDS011;3265;42.694;23.282;2022-07-05T17:08:06;11.43;;;5.53;;
6463;SDS011;3265;42.694;23.282;2022-07-05T17:10:53;6.50;;;5.90;;
6463;SDS011;3265;42.694;23.282;2022-07-05T17:13:44;9.88;;;5.90;;
6463;SDS011;3265;42.694;23.282;2022-07-05T17:16:36;11.25;;;6.28;;
6463;SDS011;3265;42.694;23.282;2022-07-05T17:19:29;12.90;;;5.80;;
6463;SDS011;3265;42.694;23.282;2022-07-05T17:22:20;9.73;;;5.72;;
6463;SDS011;3265;42.694;23.282;2022-07-05T17:25:21;12.30;;;6.03;;
6463;SDS011;3265;42.694;23.282;2022-07-05T17:28:19;11.13;;;5.72;;
6463;SDS011;3265;42.694;23.282;2022-07-05T17:31:06;12.75;;;6.03;;
6463;SDS011;3265;42.694;23.282;2022-07-05T17:33:50;9.10;;;5.95;;
6463;SDS011;3265;42.694;23.282;2022-07-05T17:36:48;11.80;;;6.18;;
6463;SDS011;3265;42.694;23.282;2022-07-05T17:39:33;12.32;;;6.15;;
6463;SDS011;3265;42.694;23.282;2022-07-05T17:42:30;15.30;;;6.25;;
6463;SDS011;3265;42.694;23.282;2022-07-05T17:45:17;15.35;;;6.47;;
6463;SDS011;3265;42.694;23.282;2022-07-05T17:48:11;11.20;;;5.70;;
6463;SDS011;3265;42.694;23.282;2022-07-05T17:51:10;7.63;;;6.28;;
6463;SDS011;3265;42.694;23.282;2022-07-05T17:54:02;10.68;;;5.93;;
6463;SDS011;3265;42.694;23.282;2022-07-05T17:56:56;8.48;;;6.20;;
6463;SDS011;3265;42.694;23.282;2022-07-05T18:03:00;16.77;;;6.60;;